メインページ
METAR-TAF:

METAR-TAF

空港 :

ノースベイ, オンタリオ州, カナダ

緯度: 46-21N, 経度: 079-26W, 海抜: 358m

現時点の気象観測

当レポートは19分前の17:00(UTC)に作成
北西の風 16kt、最大24ktの突風を伴う
気温 24°C
湿度 61%
気圧 1012 hPa
視程: 48.3km
高度3500ftの千切れ雲あり

METAR: CYYB 211700Z 32016G24KT 30SM BKN035 24/16 A2988 RMK CU6 SLP116 DENSITY ALT 2600FT

時間: 13:19 (17:19 UTC)

予報

当レポートは3時間41分前の13:38(UTC)に作成
予報は21日の 14時(UTC)から 22日の 02時(UTC)まで有効
北/北西の風 8kt
視程: 10km
高度3000ftの雲はほとんどない
21日の 1600時(UTC)から
の風 10kt
視程: 10km
高度4000ftの千切れ雲あり
21日の 19時(UTC)から 21日の 23時(UTC)まで一時的に
視程: 10km
弱いにわか雨
21日の 2300時(UTC)から
北/北西の風 10kt
視程: 10km
高度4000ftの雲は散在している

TAF: CYYB 211338Z 2114/2202 33008KT P6SM FEW030 FM211600 35010KT P6SM BKN040 TEMPO 2119/2123 P6SM -SHRA FM212300 34010KT P6SM SCT040 RMK NXT FCST BY 212000Z

4,000以上の空港の気象観測と天気予報(METAR報とTAF報)

利用可能な観測所は地図上に黄色い丸と赤い丸で示す。

丸の上にカーソルを重ねると観測所名を参照できる。

次にクリックすると気象観測と天気予報を参照できる。

マップの切り替え:黒色「×」印の緑ボタンをクリックして拡大、「-」印の緑ボタンをクリックして縮小、緑色の三角印をクリックして隣りの地図に切り替え


METAR-TAF: